Time;durP1;ratioP1;P1;durP2;ratioP2;P2;SDS_P1;SDS_P2;PMS_P1;PMS_P2;Temp;Humidity;BMP_temperature;BMP_pressure;BME280_temperature;BME280_humidity;BME280_pressure;Samples;Min_cycle;Max_cycle;Signal;HPM_P1;HPM_P2
2021/01/08 00:02:21;;;;;;;;;;;;;;;26.97;33.16;100816.13;5119306;28;1113;-38
2021/01/08 00:04:46;;;;;;;;;;;;;;;27.01;33.18;100806.66;5119912;28;838;-34
2021/01/08 00:07:12;;;;;;;;;;;;;;;26.92;33.42;100813.13;5110433;28;954;-34
2021/01/08 00:09:37;;;;;;;;;;;;;;;26.91;33.56;100811.44;5098699;28;1913;-34
2021/01/08 00:12:02;;;;;;;;;;;;;;;27.00;33.49;100814.91;5098788;28;743;-37
2021/01/08 00:14:28;;;;;;;;;;;;;;;26.88;34.04;100823.44;5098923;28;750;-34
2021/01/08 00:16:54;;;;;;;;;;;;;;;26.92;33.75;100823.94;5098770;28;798;-38
2021/01/08 00:19:19;;;;;;;;;;;;;;;26.90;33.84;100815.16;5098976;28;781;-37
2021/01/08 00:21:44;;;;;;;;;;;;;;;26.92;34.06;100810.44;5103218;28;966;-34
2021/01/08 00:24:10;;;;;;;;;;;;;;;26.93;33.83;100812.09;5119018;28;825;-38
2021/01/08 00:26:36;;;;;;;;;;;;;;;26.83;34.51;100815.03;5119438;28;799;-36
2021/01/08 00:29:01;;;;;;;;;;;;;;;26.86;34.69;100803.06;5118879;28;1941;-38
2021/01/08 00:31:34;;;;;;;;;;;;;;;26.93;34.48;100813.94;5119039;28;797;-34
2021/01/08 00:33:59;;;;;;;;;;;;;;;26.84;34.92;100824.81;5118962;28;1402;-37
2021/01/08 00:36:24;;;;;;;;;;;;;;;26.82;34.94;100816.06;5118491;28;914;-36
2021/01/08 00:38:50;;;;;;;;;;;;;;;26.81;35.13;100829.75;5118767;27;798;-38
2021/01/08 00:41:15;;;;;;;;;;;;;;;26.78;35.12;100839.88;5118919;28;798;-34
2021/01/08 00:43:40;;;;;;;;;;;;;;;26.84;35.16;100843.69;5118956;28;877;-37
2021/01/08 00:46:05;;;;;;;;;;;;;;;26.74;35.58;100843.09;5118667;28;767;-37
2021/01/08 00:48:31;;;;;;;;;;;;;;;26.75;35.59;100840.22;5118822;28;1905;-39
2021/01/08 00:50:59;;;;;;;;;;;;;;;26.81;35.47;100845.94;5117823;28;755;-34
2021/01/08 00:53:25;;;;;;;;;;;;;;;26.77;35.47;100837.34;5118726;28;1001;-34
2021/01/08 00:55:50;;;;;;;;;;;;;;;26.71;35.41;100829.97;5118475;28;1118;-36
2021/01/08 00:58:15;;;;;;;;;;;;;;;26.72;35.27;100835.19;5118363;28;921;-36
2021/01/08 01:00:41;;;;;;;;;;;;;;;26.76;35.55;100827.56;5118218;28;1310;-38
2021/01/08 01:03:06;;;;;;;;;;;;;;;26.68;35.60;100825.75;5118302;28;818;-35
2021/01/08 01:05:31;;;;;;;;;;;;;;;26.70;35.79;100823.72;5118262;28;759;-37
2021/01/08 01:07:56;;;;;;;;;;;;;;;26.65;36.10;100815.31;5102928;28;1980;-34
2021/01/08 01:10:22;;;;;;;;;;;;;;;26.69;35.84;100813.13;5097883;28;767;-38
2021/01/08 01:12:48;;;;;;;;;;;;;;;26.63;36.32;100809.25;5097756;28;837;-35
2021/01/08 01:15:17;;;;;;;;;;;;;;;26.64;36.00;100805.56;5097388;28;842;-34
2021/01/08 01:17:42;;;;;;;;;;;;;;;26.62;36.18;100804.88;5097347;28;847;-36
2021/01/08 01:20:08;;;;;;;;;;;;;;;26.70;35.82;100806.69;5097707;28;963;-35
2021/01/08 01:22:33;;;;;;;;;;;;;;;26.66;35.85;100790.00;5108761;28;993;-36
2021/01/08 01:24:58;;;;;;;;;;;;;;;26.61;35.99;100785.16;5118110;28;738;-35
2021/01/08 01:27:23;;;;;;;;;;;;;;;26.58;35.93;100776.56;5117984;28;849;-36
2021/01/08 01:29:49;;;;;;;;;;;;;;;26.61;35.92;100768.97;5117756;28;1962;-34
2021/01/08 01:32:14;;;;;;;;;;;;;;;26.64;35.82;100773.19;5117974;28;791;-35
2021/01/08 01:34:39;;;;;;;;;;;;;;;26.59;35.92;100770.19;5117886;28;1508;-36
2021/01/08 01:37:05;;;;;;;;;;;;;;;26.66;36.04;100763.03;5117367;28;909;-36
2021/01/08 01:39:30;;;;;;;;;;;;;;;26.58;36.17;100763.09;5117614;28;751;-36
2021/01/08 01:41:55;;;;;;;;;;;;;;;26.61;35.99;100771.66;5118134;28;810;-36
2021/01/08 01:44:44;;;;;;;;;;;;;;;26.58;36.18;100776.56;5117302;28;842;-33
2021/01/08 01:47:09;;;;;;;;;;;;;;;26.55;36.07;100769.69;5110934;28;888;-37
2021/01/08 01:49:34;;;;;;;;;;;;;;;26.52;36.24;100770.91;5117697;28;1901;-37
2021/01/08 01:52:00;;;;;;;;;;;;;;;26.51;36.08;100768.34;5117355;28;922;-36
2021/01/08 01:54:25;;;;;;;;;;;;;;;26.53;36.24;100760.94;5117468;28;747;-35
2021/01/08 01:56:50;;;;;;;;;;;;;;;26.49;35.93;100760.44;5117222;28;1166;-36
2021/01/08 01:59:15;;;;;;;;;;;;;;;26.50;36.28;100753.19;5116070;28;807;-36
2021/01/08 02:01:41;;;;;;;;;;;;;;;26.52;36.10;100745.78;5116794;28;1164;-37
2021/01/08 02:04:06;;;;;;;;;;;;;;;26.51;36.13;100731.44;5117188;28;853;-36
2021/01/08 02:06:36;;;;;;;;;;;;;;;26.51;35.93;100727.91;5112715;28;989;-37
2021/01/08 02:09:02;;;;;;;;;;;;;;;26.53;35.66;100724.00;5097161;28;1921;-38
2021/01/08 02:11:29;;;;;;;;;;;;;;;26.43;36.42;100723.41;5097046;28;819;-36
2021/01/08 02:14:02;;;;;;;;;;;;;;;26.51;36.07;100717.94;5096656;28;736;-35
2021/01/08 02:16:28;;;;;;;;;;;;;;;26.46;36.18;100723.03;5097047;28;747;-35
2021/01/08 02:18:53;;;;;;;;;;;;;;;26.46;36.19;100720.34;5096918;28;1553;-39
2021/01/08 02:21:20;;;;;;;;;;;;;;;26.32;36.34;100696.81;5096644;28;954;-36
2021/01/08 02:23:50;;;;;;;;;;;;;;;26.52;36.19;100716.94;5115729;28;876;-36
2021/01/08 02:26:17;;;;;;;;;;;;;;;26.51;35.89;100709.00;5116376;28;810;-35
2021/01/08 02:28:42;;;;;;;;;;;;;;;26.45;36.33;100710.59;5115586;28;1971;-39
2021/01/08 02:31:07;;;;;;;;;;;;;;;26.43;36.46;100709.91;5116085;28;778;-36
2021/01/08 02:33:32;;;;;;;;;;;;;;;26.47;36.16;100703.16;5115715;28;740;-35
2021/01/08 02:35:59;;;;;;;;;;;;;;;26.54;35.82;100708.69;5115562;28;763;-35
2021/01/08 02:38:24;;;;;;;;;;;;;;;26.39;36.30;100720.22;5117196;28;953;-36
2021/01/08 02:40:49;;;;;;;;;;;;;;;26.46;35.98;100722.22;5117110;28;813;-36
2021/01/08 02:43:15;;;;;;;;;;;;;;;26.43;36.12;100722.56;5116694;28;759;-37
2021/01/08 02:45:41;;;;;;;;;;;;;;;26.49;35.93;100727.25;5117399;28;795;-37
2021/01/08 02:48:06;;;;;;;;;;;;;;;26.37;36.18;100721.44;5117224;28;1965;-37
2021/01/08 02:50:32;;;;;;;;;;;;;;;26.39;36.14;100716.72;5116895;28;829;-37
2021/01/08 02:52:58;;;;;;;;;;;;;;;26.41;36.03;100709.25;5117007;28;1004;-36
2021/01/08 02:55:25;;;;;;;;;;;;;;;26.45;36.00;100710.59;5116811;28;1415;-36
2021/01/08 02:57:50;;;;;;;;;;;;;;;26.33;36.21;100715.56;5116640;28;842;-36
2021/01/08 03:00:15;;;;;;;;;;;;;;;26.39;35.87;100706.72;5117024;28;743;-35
2021/01/08 03:02:41;;;;;;;;;;;;;;;26.47;35.82;100715.81;5115475;28;1137;-36
2021/01/08 03:05:06;;;;;;;;;;;;;;;26.40;35.75;100708.44;5116594;28;723;-35
2021/01/08 03:07:31;;;;;;;;;;;;;;;26.42;35.89;100710.94;5105750;28;1020;-40
2021/01/08 03:09:57;;;;;;;;;;;;;;;26.38;36.07;100710.47;5096345;28;1958;-35
2021/01/08 03:12:22;;;;;;;;;;;;;;;26.34;36.15;100705.63;5096836;28;833;-37
2021/01/08 03:14:47;;;;;;;;;;;;;;;26.37;35.85;100706.09;5098969;28;1432;-37
2021/01/08 03:17:13;;;;;;;;;;;;;;;26.39;35.88;100709.44;5099974;28;790;-35
2021/01/08 03:19:38;;;;;;;;;;;;;;;25.56;27.25;100704.41;5099943;28;846;-38
2021/01/08 03:22:04;;;;;;;;;;;;;;;26.13;31.07;100710.59;5107547;28;923;-39
2021/01/08 03:24:29;;;;;;;;;;;;;;;26.40;26.43;100699.50;5120269;28;774;-40
2021/01/08 03:26:54;;;;;;;;;;;;;;;31.10;22.04;100705.03;5120665;28;774;-37
2021/01/08 03:29:20;;;;;;;;;;;;;;;32.03;20.75;100704.13;5120469;28;1961;-38
2021/01/08 03:31:45;;;;;;;;;;;;;;;31.60;21.34;100706.38;5120148;27;781;-39
2021/01/08 03:34:10;;;;;;;;;;;;;;;32.29;20.75;100710.47;5120500;28;755;-39
2021/01/08 03:36:35;;;;;;;;;;;;;;;32.38;20.58;100711.84;5119724;28;977;-38
2021/01/08 03:39:01;;;;;;;;;;;;;;;32.65;20.56;100712.75;5120063;28;747;-39
2021/01/08 03:41:26;;;;;;;;;;;;;;;32.50;20.77;100711.13;5120213;28;798;-39
2021/01/08 03:43:51;;;;;;;;;;;;;;;32.23;21.37;100712.16;5120134;28;850;-39
2021/01/08 03:46:16;;;;;;;;;;;;;;;32.74;20.87;100706.81;5119867;28;782;-40
2021/01/08 03:48:42;;;;;;;;;;;;;;;32.79;20.75;100700.69;5118341;28;1960;-42
2021/01/08 03:51:07;;;;;;;;;;;;;;;32.79;21.06;100689.78;5119330;28;819;-40
2021/01/08 03:53:32;;;;;;;;;;;;;;;32.67;21.21;100680.66;5119598;28;989;-39
2021/01/08 03:55:58;;;;;;;;;;;;;;;32.42;21.88;100673.28;5119538;28;1177;-38
2021/01/08 03:58:23;;;;;;;;;;;;;;;32.48;21.78;100669.72;5119751;28;743;-37
2021/01/08 04:00:48;;;;;;;;;;;;;;;32.58;21.75;100669.25;5111649;28;1052;-39
2021/01/08 04:03:13;;;;;;;;;;;;;;;32.64;21.85;100664.78;5099364;28;799;-38
2021/01/08 04:05:39;;;;;;;;;;;;;;;32.52;21.84;100679.09;5098496;28;811;-38
2021/01/08 04:08:04;;;;;;;;;;;;;;;32.57;22.03;100675.72;5114949;28;1972;-38
2021/01/08 04:10:29;;;;;;;;;;;;;;;32.52;22.13;100675.50;5119894;28;775;-38
2021/01/08 04:12:55;;;;;;;;;;;;;;;32.43;22.30;100677.69;5119109;28;755;-39
2021/01/08 04:15:20;;;;;;;;;;;;;;;32.37;22.84;100679.41;5119484;28;794;-44
2021/01/08 04:17:45;;;;;;;;;;;;;;;32.01;22.42;100682.56;5119440;27;725;-38
2021/01/08 04:20:11;;;;;;;;;;;;;;;30.58;21.97;100683.91;5118949;28;855;-40
2021/01/08 04:22:36;;;;;;;;;;;;;;;29.92;21.73;100678.16;5119330;28;993;-42
2021/01/08 04:25:02;;;;;;;;;;;;;;;29.58;21.33;100684.25;5118020;28;886;-37
2021/01/08 04:27:27;;;;;;;;;;;;;;;29.89;20.54;100684.84;5118902;28;755;-38
2021/01/08 04:29:53;;;;;;;;;;;;;;;29.99;20.18;100684.44;5119146;28;1909;-42
2021/01/08 04:32:18;;;;;;;;;;;;;;;29.69;20.16;100682.03;5118986;27;778;-38
2021/01/08 04:34:43;;;;;;;;;;;;;;;29.49;20.10;100673.78;5118791;28;798;-42
2021/01/08 04:37:09;;;;;;;;;;;;;;;29.57;19.92;100668.19;5118441;28;937;-38
2021/01/08 04:39:34;;;;;;;;;;;;;;;29.48;19.94;100664.81;5118977;28;783;-38
2021/01/08 04:41:59;;;;;;;;;;;;;;;27.36;21.61;100657.63;5118710;28;791;-40
2021/01/08 04:44:24;;;;;;;;;;;;;;;24.79;24.71;100650.03;5118567;28;846;-38
2021/01/08 04:46:50;;;;;;;;;;;;;;;25.35;23.34;100648.44;5118630;28;748;-40
2021/01/08 04:49:15;;;;;;;;;;;;;;;24.82;24.56;100641.63;5117102;28;1951;-37
2021/01/08 04:51:40;;;;;;;;;;;;;;;27.17;21.84;100642.84;5117351;28;985;-37
2021/01/08 04:54:05;;;;;;;;;;;;;;;30.43;18.39;100651.56;5118464;28;774;-42
2021/01/08 04:56:32;;;;;;;;;;;;;;;30.98;18.49;100653.22;5118061;28;1126;-42
2021/01/08 04:58:57;;;;;;;;;;;;;;;30.48;19.24;100649.06;5118520;28;817;-44
2021/01/08 05:01:22;;;;;;;;;;;;;;;27.60;20.49;100639.44;5118206;28;1267;-40
2021/01/08 05:03:48;;;;;;;;;;;;;;;25.74;22.59;100642.22;5118001;28;754;-37
2021/01/08 05:06:13;;;;;;;;;;;;;;;27.56;22.26;100642.72;5117804;28;942;-40
2021/01/08 05:08:38;;;;;;;;;;;;;;;27.76;21.58;100637.56;5104532;28;1909;-39
2021/01/08 05:11:25;;;;;;;;;;;;;;;28.03;21.13;100632.47;5117548;28;803;-39
2021/01/08 05:13:51;;;;;;;;;;;;;;;28.16;21.07;100639.03;5117658;28;961;-38
2021/01/08 05:16:16;;;;;;;;;;;;;;;28.37;20.69;100635.53;5117634;28;1314;-39
2021/01/08 05:18:42;;;;;;;;;;;;;;;28.26;20.43;100644.13;5117902;28;787;-38
2021/01/08 05:21:07;;;;;;;;;;;;;;;28.36;20.61;100634.69;5116650;28;815;-38
2021/01/08 05:23:32;;;;;;;;;;;;;;;28.51;20.54;100631.03;5096359;28;969;-37
2021/01/08 05:25:58;;;;;;;;;;;;;;;28.24;20.67;100634.31;5096277;28;1378;-41
2021/01/08 05:28:23;;;;;;;;;;;;;;;28.48;20.51;100635.00;5095766;28;1977;-39
2021/01/08 05:30:48;;;;;;;;;;;;;;;28.41;20.34;100625.16;5099277;28;916;-37
2021/01/08 05:33:17;;;;;;;;;;;;;;;28.30;20.30;100613.78;5116391;28;771;-38
2021/01/08 05:35:42;;;;;;;;;;;;;;;28.60;20.19;100616.38;5117060;28;794;-39
2021/01/08 05:38:07;;;;;;;;;;;;;;;28.44;20.17;100616.66;5117464;28;894;-41
2021/01/08 05:40:33;;;;;;;;;;;;;;;28.30;20.24;100610.25;5117496;28;779;-42
2021/01/08 05:43:01;;;;;;;;;;;;;;;28.60;20.18;100594.72;5117595;27;830;-44
2021/01/08 05:45:26;;;;;;;;;;;;;;;29.37;19.83;100593.06;5117736;28;873;-37
2021/01/08 05:47:52;;;;;;;;;;;;;;;29.81;20.08;100590.94;5117518;28;866;-38
2021/01/08 05:50:18;;;;;;;;;;;;;;;30.01;20.16;100590.13;5117288;28;1902;-38
2021/01/08 05:52:44;;;;;;;;;;;;;;;30.18;20.31;100590.56;5116562;28;819;-38
2021/01/08 05:55:10;;;;;;;;;;;;;;;30.31;20.56;100589.75;5116709;28;1220;-38
2021/01/08 05:57:35;;;;;;;;;;;;;;;30.49;20.59;100587.47;5117043;28;807;-40
2021/01/08 06:00:01;;;;;;;;;;;;;;;29.16;22.63;100584.00;5116166;28;1487;-42
2021/01/08 06:02:27;;;;;;;;;;;;;;;28.88;22.98;100578.66;5116117;28;951;-37
2021/01/08 06:04:52;;;;;;;;;;;;;;;29.87;21.82;100583.88;5115280;28;1144;-38
2021/01/08 06:07:17;;;;;;;;;;;;;;;29.92;21.78;100584.09;5106283;28;1386;-39
2021/01/08 06:09:43;;;;;;;;;;;;;;;29.89;21.88;100584.50;5095415;28;1918;-38
2021/01/08 06:12:08;;;;;;;;;;;;;;;29.96;22.10;100573.66;5096954;28;812;-40
2021/01/08 06:14:34;;;;;;;;;;;;;;;30.17;21.67;100566.38;5095725;28;751;-43
2021/01/08 06:16:59;;;;;;;;;;;;;;;29.67;22.82;100570.25;5094957;28;1096;-43
2021/01/08 06:19:24;;;;;;;;;;;;;;;29.58;22.93;100575.84;5097233;28;790;-45
2021/01/08 06:21:50;;;;;;;;;;;;;;;30.38;21.99;100576.19;5100617;28;904;-39
2021/01/08 06:24:18;;;;;;;;;;;;;;;29.94;22.44;100578.47;5116274;28;908;-42
2021/01/08 06:26:43;;;;;;;;;;;;;;;29.49;22.78;100560.81;5116915;28;800;-39
2021/01/08 06:29:29;;;;;;;;;;;;;;;29.61;23.05;100569.22;5116806;28;1965;-39
2021/01/08 06:31:56;;;;;;;;;;;;;;;29.77;22.66;100569.88;5116429;28;1220;-40
2021/01/08 06:34:22;;;;;;;;;;;;;;;30.09;22.31;100567.41;5116639;28;787;-37
2021/01/08 06:36:48;;;;;;;;;;;;;;;30.12;22.41;100571.56;5116247;28;985;-38
2021/01/08 06:39:16;;;;;;;;;;;;;;;29.57;23.05;100562.50;5115741;28;789;-38
2021/01/08 06:41:42;;;;;;;;;;;;;;;29.56;23.41;100564.38;5115407;28;1011;-39
2021/01/08 06:44:07;;;;;;;;;;;;;;;29.71;23.14;100560.69;5115086;28;802;-40
2021/01/08 06:46:39;;;;;;;;;;;;;;;30.13;22.86;100559.69;5115720;28;786;-40
2021/01/08 06:49:08;;;;;;;;;;;;;;;30.18;22.40;100549.88;5118242;28;1902;-39
2021/01/08 06:51:34;;;;;;;;;;;;;;;29.45;23.47;100549.53;5120734;28;878;-39
2021/01/08 06:54:00;;;;;;;;;;;;;;;29.52;23.48;100549.56;5120941;28;782;-39
2021/01/08 06:56:35;;;;;;;;;;;;;;;29.79;23.16;100546.94;5120164;28;951;-40
2021/01/08 06:59:00;;;;;;;;;;;;;;;29.92;23.01;100545.28;5121029;28;748;-39
2021/01/08 07:01:31;;;;;;;;;;;;;;;30.66;22.19;100542.53;5120741;28;1047;-40
2021/01/08 07:03:56;;;;;;;;;;;;;;;29.60;23.26;100553.97;5118994;28;839;-39
2021/01/08 07:06:22;;;;;;;;;;;;;;;29.33;23.49;100552.00;5118989;28;933;-40
2021/01/08 07:08:47;;;;;;;;;;;;;;;29.87;22.97;100548.63;5120299;27;1910;-39
2021/01/08 07:11:22;;;;;;;;;;;;;;;30.04;23.23;100551.78;5119130;28;778;-42
2021/01/08 07:13:47;;;;;;;;;;;;;;;30.61;22.39;100555.09;5120639;28;790;-42
2021/01/08 07:16:22;;;;;;;;;;;;;;;29.66;23.45;100553.16;5120557;28;846;-40
2021/01/08 07:18:47;;;;;;;;;;;;;;;29.56;23.47;100539.16;5120240;28;763;-39
2021/01/08 07:21:21;;;;;;;;;;;;;;;29.74;23.58;100540.47;5120445;28;879;-39
2021/01/08 07:23:46;;;;;;;;;;;;;;;29.98;23.36;100541.72;5119942;28;847;-39
2021/01/08 07:26:12;;;;;;;;;;;;;;;30.57;22.40;100551.13;5120118;27;746;-42
2021/01/08 07:28:37;;;;;;;;;;;;;;;29.80;23.57;100550.47;5119328;28;1902;-39
2021/01/08 07:31:09;;;;;;;;;;;;;;;29.62;23.50;100561.91;5120414;28;798;-43
2021/01/08 07:33:34;;;;;;;;;;;;;;;29.65;23.98;100569.63;5119831;28;732;-40
2021/01/08 07:36:10;;;;;;;;;;;;;;;30.00;23.38;100563.22;5119892;28;1438;-41
2021/01/08 07:38:35;;;;;;;;;;;;;;;30.61;22.60;100555.94;5117969;28;1080;-42
2021/01/08 07:41:00;;;;;;;;;;;;;;;29.70;23.72;100546.31;5120009;28;795;-39
2021/01/08 07:43:32;;;;;;;;;;;;;;;29.29;23.93;100529.09;5120002;28;758;-40
2021/01/08 07:45:58;;;;;;;;;;;;;;;29.77;23.96;100540.03;5119934;28;767;-40
2021/01/08 07:48:28;;;;;;;;;;;;;;;29.97;23.37;100544.66;5119814;28;1893;-40
2021/01/08 07:50:54;;;;;;;;;;;;;;;30.63;22.59;100534.81;5119851;28;786;-40
2021/01/08 07:53:38;;;;;;;;;;;;;;;29.52;24.04;100532.47;5119254;28;1012;-40
2021/01/08 07:56:03;;;;;;;;;;;;;;;29.29;24.39;100539.06;5119648;28;1063;-41
2021/01/08 07:58:29;;;;;;;;;;;;;;;29.48;24.44;100520.38;5119384;28;860;-41
2021/01/08 08:00:54;;;;;;;;;;;;;;;29.73;23.99;100517.13;5118679;28;1019;-38
2021/01/08 08:03:19;;;;;;;;;;;;;;;30.53;22.86;100510.81;5119849;28;814;-40
2021/01/08 08:05:45;;;;;;;;;;;;;;;29.66;23.68;100512.50;5118386;28;841;-44
2021/01/08 08:08:10;;;;;;;;;;;;;;;29.33;24.16;100505.94;5101990;28;1973;-38
2021/01/08 08:10:35;;;;;;;;;;;;;;;29.60;24.25;100507.06;5097509;28;844;-40
2021/01/08 08:13:00;;;;;;;;;;;;;;;29.91;23.58;100508.38;5099221;28;862;-41
2021/01/08 08:15:26;;;;;;;;;;;;;;;30.14;23.01;100488.13;5098748;28;763;-42
2021/01/08 08:17:51;;;;;;;;;;;;;;;29.43;23.95;100483.03;5098519;28;846;-41
2021/01/08 08:20:20;;;;;;;;;;;;;;;29.45;24.04;100481.81;5097869;28;798;-42
2021/01/08 08:22:45;;;;;;;;;;;;;;;29.55;24.14;100481.41;5111834;28;946;-40
2021/01/08 08:25:29;;;;;;;;;;;;;;;29.96;23.68;100475.19;5118922;28;840;-46
2021/01/08 08:27:55;;;;;;;;;;;;;;;30.20;22.90;100471.03;5118782;28;1110;-41
2021/01/08 08:30:21;;;;;;;;;;;;;;;29.44;24.06;100453.03;5118488;28;1906;-40
2021/01/08 08:32:47;;;;;;;;;;;;;;;29.49;24.32;100444.28;5118034;28;957;-39
2021/01/08 08:35:13;;;;;;;;;;;;;;;29.66;24.17;100450.16;5118689;28;813;-36
2021/01/08 08:37:48;;;;;;;;;;;;;;;30.13;23.32;100440.34;5106137;28;1037;-42
2021/01/08 08:40:13;;;;;;;;;;;;;;;30.07;23.05;100433.88;5098405;28;774;-42
2021/01/08 08:42:39;;;;;;;;;;;;;;;29.51;24.15;100446.78;5098451;28;726;-38
2021/01/08 08:45:04;;;;;;;;;;;;;;;29.42;24.23;100438.03;5098421;28;802;-40
2021/01/08 08:47:30;;;;;;;;;;;;;;;29.66;23.75;100438.50;5098376;28;851;-40
2021/01/08 08:49:55;;;;;;;;;;;;;;;29.99;23.18;100443.06;5096748;28;1980;-38
2021/01/08 08:52:27;;;;;;;;;;;;;;;29.87;23.33;100429.31;5107377;28;954;-45
2021/01/08 08:54:52;;;;;;;;;;;;;;;28.93;24.70;100430.78;5117940;28;1134;-42
2021/01/08 08:57:20;;;;;;;;;;;;;;;29.24;24.60;100425.06;5118596;28;775;-40
2021/01/08 08:59:45;;;;;;;;;;;;;;;29.74;23.69;100427.44;5117304;28;775;-40
2021/01/08 09:02:23;;;;;;;;;;;;;;;30.17;22.98;100422.59;5117674;28;1146;-41
2021/01/08 09:04:52;;;;;;;;;;;;;;;28.81;24.72;100403.47;5117987;28;883;-37
2021/01/08 09:07:28;;;;;;;;;;;;;;;28.77;24.98;100401.38;5108612;28;958;-37
2021/01/08 09:09:54;;;;;;;;;;;;;;;29.50;23.74;100391.75;5096155;28;1967;-40
2021/01/08 09:12:36;;;;;;;;;;;;;;;29.94;23.55;100391.34;5096529;28;747;-40
2021/01/08 09:15:25;;;;;;;;;;;;;;;29.87;23.27;100388.63;5097811;28;806;-37
2021/01/08 09:17:56;;;;;;;;;;;;;;;28.71;24.76;100381.38;5086807;28;1030;-38
2021/01/08 09:20:21;;;;;;;;;;;;;;;29.32;24.25;100371.53;5096681;28;802;-37
2021/01/08 09:22:47;;;;;;;;;;;;;;;29.66;23.64;100374.25;5109398;28;954;-38
2021/01/08 09:25:12;;;;;;;;;;;;;;;30.12;22.99;100357.28;5116272;28;848;-37
2021/01/08 09:27:40;;;;;;;;;;;;;;;30.37;22.94;100357.44;5118159;28;766;-39
2021/01/08 09:30:06;;;;;;;;;;;;;;;28.97;24.61;100350.03;5117766;28;1906;-38
2021/01/08 09:32:32;;;;;;;;;;;;;;;28.84;25.09;100338.09;5117396;28;727;-39
2021/01/08 09:35:02;;;;;;;;;;;;;;;29.88;23.59;100324.41;5117407;28;878;-38
2021/01/08 09:37:27;;;;;;;;;;;;;;;30.23;23.05;100321.38;5117517;28;934;-36
2021/01/08 09:39:53;;;;;;;;;;;;;;;28.95;24.47;100311.44;5116165;28;799;-42
2021/01/08 09:42:18;;;;;;;;;;;;;;;28.57;25.22;100310.13;5116826;28;739;-37
2021/01/08 09:44:43;;;;;;;;;;;;;;;29.33;24.30;100285.66;5116237;28;775;-37
2021/01/08 09:47:09;;;;;;;;;;;;;;;29.84;23.74;100298.75;5117699;28;806;-39
2021/01/08 09:49:46;;;;;;;;;;;;;;;30.35;22.91;100290.84;5117344;28;1910;-37
2021/01/08 09:52:11;;;;;;;;;;;;;;;29.42;23.99;100295.25;5115723;28;926;-39
2021/01/08 09:54:43;;;;;;;;;;;;;;;29.39;24.25;100278.56;5117710;28;811;-38
2021/01/08 09:57:09;;;;;;;;;;;;;;;29.81;23.98;100273.72;5096952;28;830;-41
2021/01/08 09:59:34;;;;;;;;;;;;;;;30.29;23.26;100266.28;5096891;28;734;-39
2021/01/08 10:02:05;;;;;;;;;;;;;;;29.77;23.95;100266.22;5096984;28;1053;-41
2021/01/08 10:04:33;;;;;;;;;;;;;;;29.05;24.46;100255.06;5097247;28;752;-39
2021/01/08 10:07:00;;;;;;;;;;;;;;;29.53;24.00;100252.31;5102924;28;942;-41
2021/01/08 10:09:25;;;;;;;;;;;;;;;29.84;23.89;100239.09;5117147;28;1910;-40
2021/01/08 10:11:57;;;;;;;;;;;;;;;30.30;23.10;100231.81;5117588;28;799;-38
2021/01/08 10:14:22;;;;;;;;;;;;;;;29.47;24.23;100235.00;5115649;28;744;-42
2021/01/08 10:16:48;;;;;;;;;;;;;;;29.05;24.68;100227.13;5117233;28;830;-38
2021/01/08 10:19:13;;;;;;;;;;;;;;;29.74;24.28;100226.84;5117198;28;814;-38
2021/01/08 10:21:42;;;;;;;;;;;;;;;30.19;23.64;100226.03;5117550;28;914;-42
2021/01/08 10:24:07;;;;;;;;;;;;;;;29.97;23.29;100224.66;5121493;28;795;-40
2021/01/08 10:26:33;;;;;;;;;;;;;;;29.30;24.59;100205.66;5121336;28;791;-37
2021/01/08 10:28:58;;;;;;;;;;;;;;;29.70;24.41;100206.63;5121467;28;1905;-38
2021/01/08 10:31:23;;;;;;;;;;;;;;;29.86;23.82;100208.03;5121216;28;762;-40
2021/01/08 10:33:49;;;;;;;;;;;;;;;30.19;23.30;100204.31;5121152;28;758;-38
2021/01/08 10:36:14;;;;;;;;;;;;;;;29.58;23.60;100204.53;5121008;28;902;-40
2021/01/08 10:38:40;;;;;;;;;;;;;;;28.86;24.43;100194.44;5120886;28;847;-40
2021/01/08 10:41:05;;;;;;;;;;;;;;;29.49;23.70;100194.16;5120774;28;866;-36
2021/01/08 10:43:32;;;;;;;;;;;;;;;29.98;23.25;100174.81;5121191;28;759;-38
2021/01/08 10:45:58;;;;;;;;;;;;;;;29.92;23.00;100169.19;5121282;28;767;-38
2021/01/08 10:48:23;;;;;;;;;;;;;;;29.05;24.50;100157.56;5120656;28;1901;-36
2021/01/08 10:50:48;;;;;;;;;;;;;;;29.41;24.05;100149.16;5120991;28;820;-39
2021/01/08 10:53:14;;;;;;;;;;;;;;;29.81;23.72;100157.16;5120291;28;997;-37
2021/01/08 10:55:39;;;;;;;;;;;;;;;30.31;22.74;100144.78;5120679;28;1086;-37
2021/01/08 10:58:04;;;;;;;;;;;;;;;29.52;24.11;100140.38;5120598;28;848;-38
2021/01/08 11:00:29;;;;;;;;;;;;;;;29.40;24.24;100145.59;5120526;28;1039;-40
2021/01/08 11:02:55;;;;;;;;;;;;;;;29.65;24.22;100146.78;5120609;28;745;-39
2021/01/08 11:05:20;;;;;;;;;;;;;;;29.99;23.64;100155.63;5120751;28;846;-39
2021/01/08 11:07:46;;;;;;;;;;;;;;;30.05;23.67;100143.03;5107270;28;1348;-39
2021/01/08 11:10:11;;;;;;;;;;;;;;;29.59;24.44;100132.25;5100027;28;1969;-38
2021/01/08 11:12:37;;;;;;;;;;;;;;;29.73;24.27;100141.13;5115799;28;931;-38
2021/01/08 11:15:03;;;;;;;;;;;;;;;29.85;24.36;100146.69;5120518;28;854;-41
2021/01/08 11:17:28;;;;;;;;;;;;;;;30.34;23.72;100148.13;5120611;28;731;-40
2021/01/08 11:19:53;;;;;;;;;;;;;;;29.86;24.28;100142.97;5120232;28;511;-40
2021/01/08 11:22:19;;;;;;;;;;;;;;;29.43;24.91;100120.78;5119953;28;937;-37
2021/01/08 11:24:44;;;;;;;;;;;;;;;29.75;24.62;100135.50;5120178;28;763;-41
2021/01/08 11:27:09;;;;;;;;;;;;;;;29.83;24.62;100129.81;5120411;28;794;-40
2021/01/08 11:29:34;;;;;;;;;;;;;;;30.34;24.21;100119.09;5120430;28;1898;-41
2021/01/08 11:32:00;;;;;;;;;;;;;;;29.86;24.68;100123.16;5120191;28;814;-40
2021/01/08 11:34:25;;;;;;;;;;;;;;;29.48;25.08;100122.03;5119496;28;747;-41
2021/01/08 11:36:55;;;;;;;;;;;;;;;29.81;24.41;100102.13;5119759;27;989;-41
2021/01/08 11:39:20;;;;;;;;;;;;;;;29.94;24.23;100102.03;5119925;28;792;-39
2021/01/08 11:41:45;;;;;;;;;;;;;;;30.45;23.50;100097.75;5120403;28;849;-39
2021/01/08 11:44:11;;;;;;;;;;;;;;;29.31;24.38;100090.81;5119351;28;859;-39
2021/01/08 11:46:36;;;;;;;;;;;;;;;29.09;25.05;100084.88;5119796;28;830;-40
2021/01/08 11:49:01;;;;;;;;;;;;;;;29.91;23.93;100074.53;5119907;28;1905;-40
2021/01/08 11:51:27;;;;;;;;;;;;;;;30.30;23.56;100069.03;5119483;28;887;-40
2021/01/08 11:53:52;;;;;;;;;;;;;;;29.19;24.53;100076.28;5119488;28;854;-40
2021/01/08 11:56:17;;;;;;;;;;;;;;;28.97;25.28;100071.16;5119676;28;1170;-40
2021/01/08 11:58:43;;;;;;;;;;;;;;;29.75;24.17;100059.59;5119730;28;775;-39
2021/01/08 12:01:08;;;;;;;;;;;;;;;30.15;23.81;100051.19;5119474;28;1078;-40
2021/01/08 12:03:37;;;;;;;;;;;;;;;29.63;24.33;100037.78;5119621;28;771;-38
2021/01/08 12:06:03;;;;;;;;;;;;;;;28.82;25.47;100037.00;5119344;28;809;-38
2021/01/08 12:08:28;;;;;;;;;;;;;;;29.38;24.64;100035.81;5099955;28;1963;-39
2021/01/08 12:10:54;;;;;;;;;;;;;;;30.03;23.87;100040.22;5099335;28;810;-38
2021/01/08 12:13:19;;;;;;;;;;;;;;;29.74;24.03;100031.66;5098870;28;759;-39
2021/01/08 12:15:44;;;;;;;;;;;;;;;28.88;25.22;100039.91;5107781;28;915;-36
2021/01/08 12:18:12;;;;;;;;;;;;;;;29.13;24.86;100031.13;5119696;28;755;-37
2021/01/08 12:20:38;;;;;;;;;;;;;;;29.75;24.21;100029.78;5119260;28;820;-38
2021/01/08 12:23:03;;;;;;;;;;;;;;;30.16;23.46;100023.00;5118489;28;1144;-40
2021/01/08 12:25:29;;;;;;;;;;;;;;;28.94;25.11;100022.81;5119350;28;805;-37
2021/01/08 12:27:54;;;;;;;;;;;;;;;28.44;25.89;100006.06;5119073;28;754;-37
2021/01/08 12:30:19;;;;;;;;;;;;;;;29.36;24.54;100002.69;5118948;28;1898;-38
2021/01/08 12:32:45;;;;;;;;;;;;;;;29.87;23.73;100008.22;5119093;28;889;-41
2021/01/08 12:35:10;;;;;;;;;;;;;;;29.24;24.75;100013.34;5118871;28;837;-39
2021/01/08 12:37:35;;;;;;;;;;;;;;;28.31;25.85;100008.75;5119064;28;1028;-40
2021/01/08 12:40:01;;;;;;;;;;;;;;;29.03;25.14;100012.63;5118710;27;830;-42
2021/01/08 12:42:26;;;;;;;;;;;;;;;29.76;24.08;100013.28;5118734;28;770;-39
2021/01/08 12:44:51;;;;;;;;;;;;;;;29.93;23.75;100018.16;5118213;28;786;-41
2021/01/08 12:47:16;;;;;;;;;;;;;;;28.71;25.45;100016.00;5118088;28;828;-40
2021/01/08 12:49:42;;;;;;;;;;;;;;;28.81;25.49;100026.41;5118082;28;1968;-38
2021/01/08 12:52:07;;;;;;;;;;;;;;;29.72;24.38;100020.22;5118579;28;906;-39